createdAt,value
2023-02-25T00:02:20.188Z,94940.13
2023-02-25T00:05:07.362Z,94923.19
2023-02-25T00:07:54.249Z,94923.31
2023-02-25T00:10:40.136Z,94922.22
2023-02-25T00:13:26.785Z,94926.50
2023-02-25T00:16:14.609Z,94922.69
2023-02-25T00:19:00.537Z,94926.03
2023-02-25T00:21:47.360Z,94917.47
2023-02-25T00:24:34.106Z,94909.84
2023-02-25T00:27:19.943Z,94909.03
2023-02-25T00:30:06.516Z,94907.13
2023-02-25T00:32:52.354Z,94901.13
2023-02-25T00:35:41.322Z,94889.53
2023-02-25T00:38:28.015Z,94883.16
2023-02-25T00:41:16.187Z,94878.25
2023-02-25T00:44:02.381Z,94876.97
2023-02-25T00:46:51.689Z,94880.00
2023-02-25T00:49:37.593Z,94869.22
2023-02-25T00:52:23.344Z,94863.84
2023-02-25T00:55:10.199Z,94851.28
2023-02-25T00:57:56.008Z,94853.81
2023-02-25T01:00:51.767Z,94851.91
2023-02-25T01:03:38.855Z,94844.59
2023-02-25T01:06:26.604Z,94840.50
2023-02-25T01:09:14.182Z,94849.22
2023-02-25T01:12:00.395Z,94831.47
2023-02-25T01:14:46.512Z,94829.53
2023-02-25T01:17:33.189Z,94821.31
2023-02-25T01:20:20.113Z,94820.69
2023-02-25T01:23:08.596Z,94813.66
2023-02-25T01:25:54.332Z,94811.13
2023-02-25T01:28:40.386Z,94807.47
2023-02-25T01:31:29.602Z,94803.66
2023-02-25T01:34:17.269Z,94801.47
2023-02-25T01:37:04.293Z,94808.28
2023-02-25T01:39:50.723Z,94806.38
2023-02-25T01:42:37.142Z,94807.94
2023-02-25T01:45:28.616Z,94795.28
2023-02-25T01:48:18.486Z,94798.28
2023-02-25T01:51:11.515Z,94788.28
2023-02-25T01:53:59.914Z,94797.66
2023-02-25T01:56:52.778Z,94788.78
2023-02-25T01:59:40.446Z,94792.72
2023-02-25T02:02:28.312Z,94792.41
2023-02-25T02:05:17.054Z,94789.88
2023-02-25T02:08:03.080Z,94786.69
2023-02-25T02:10:50.338Z,94774.47
2023-02-25T02:13:38.050Z,94782.56
2023-02-25T02:16:37.276Z,94781.63
2023-02-25T02:19:47.806Z,94783.22
2023-02-25T02:22:37.938Z,94773.97
2023-02-25T02:26:03.739Z,94767.03
2023-02-25T02:29:01.381Z,94757.81
2023-02-25T02:31:50.193Z,94752.41
2023-02-25T02:34:45.003Z,94753.88
2023-02-25T02:37:30.906Z,94740.69
2023-02-25T02:40:37.134Z,94744.50
2023-02-25T02:43:54.344Z,94738.63
2023-02-25T02:46:51.739Z,94733.25
2023-02-25T02:49:52.868Z,94738.94
2023-02-25T02:52:43.480Z,94738.31
2023-02-25T02:55:36.155Z,94729.13
2023-02-25T02:58:37.188Z,94738.31
2023-02-25T03:01:39.820Z,94739.13
2023-02-25T03:04:29.196Z,94726.75
2023-02-25T03:07:16.366Z,94723.44
2023-02-25T03:10:05.340Z,94736.41
2023-02-25T03:12:52.728Z,94747.19
2023-02-25T03:15:41.016Z,94755.28
2023-02-25T03:18:53.121Z,94753.69
2023-02-25T03:21:51.649Z,94751.47
2023-02-25T03:24:56.029Z,94751.47
2023-02-25T03:27:46.922Z,94731.19
2023-02-25T03:31:10.464Z,94726.91
2023-02-25T03:34:08.807Z,94727.72
2023-02-25T03:36:57.842Z,94717.56
2023-02-25T03:39:49.732Z,94705.28
2023-02-25T03:42:35.815Z,94713.25
2023-02-25T03:45:23.338Z,94710.84
2023-02-25T03:48:11.403Z,94698.19
2023-02-25T03:51:01.122Z,94694.38
2023-02-25T03:53:50.278Z,94695.31
2023-02-25T03:56:45.229Z,94696.91
2023-02-25T03:59:31.269Z,94685.16
2023-02-25T04:02:18.042Z,94689.13
2023-02-25T04:05:04.206Z,94687.72
2023-02-25T04:07:50.111Z,94673.44
2023-02-25T04:10:36.679Z,94679.00
2023-02-25T04:13:22.653Z,94675.03
2023-02-25T04:16:09.184Z,94668.69
2023-02-25T04:18:56.798Z,94663.91
2023-02-25T04:21:43.497Z,94660.78
2023-02-25T04:24:29.890Z,94639.06
2023-02-25T04:27:16.939Z,94644.28
2023-02-25T04:30:02.931Z,94637.28
2023-02-25T04:32:48.828Z,94642.69
2023-02-25T04:35:34.838Z,94626.69
2023-02-25T04:38:21.604Z,94638.56
2023-02-25T04:41:07.335Z,94631.59
2023-02-25T04:43:52.967Z,94636.19
2023-02-25T04:46:41.108Z,94640.78
2023-02-25T04:49:27.102Z,94627.50
2023-02-25T04:52:16.004Z,94630.63
2023-02-25T04:55:01.825Z,94617.16
2023-02-25T04:57:47.634Z,94632.53
2023-02-25T05:00:33.313Z,94624.31
2023-02-25T05:03:19.298Z,94607.50
2023-02-25T05:06:06.313Z,94605.59
2023-02-25T05:08:52.470Z,94604.66
2023-02-25T05:11:38.495Z,94609.41
2023-02-25T05:14:24.432Z,94591.66
2023-02-25T05:17:10.415Z,94595.78
2023-02-25T05:19:58.598Z,94587.56
2023-02-25T05:22:44.445Z,94599.28
2023-02-25T05:25:30.289Z,94593.72
2023-02-25T05:28:16.079Z,94599.28
2023-02-25T05:31:09.760Z,94594.66
2023-02-25T05:33:56.664Z,94579.63
2023-02-25T05:36:42.246Z,94588.34
2023-02-25T05:39:28.098Z,94595.78
2023-02-25T05:42:13.738Z,94597.38
2023-02-25T05:45:00.434Z,94604.81
2023-02-25T05:47:49.077Z,94629.38
2023-02-25T05:50:41.769Z,94625.59
2023-02-25T05:53:28.108Z,94615.13
2023-02-25T05:56:23.969Z,94614.50
2023-02-25T05:59:12.129Z,94609.91
2023-02-25T06:01:59.383Z,94615.44
2023-02-25T06:04:45.298Z,94608.47
2023-02-25T06:07:33.393Z,94604.81
2023-02-25T06:10:19.574Z,94607.53
2023-02-25T06:13:06.961Z,94607.81
2023-02-25T06:15:52.708Z,94605.91
2023-02-25T06:18:38.489Z,94610.97
2023-02-25T06:21:25.883Z,94607.00
2023-02-25T06:24:13.025Z,94606.78
2023-02-25T06:26:58.812Z,94592.34
2023-02-25T06:29:48.037Z,94615.47
2023-02-25T06:32:34.042Z,94601.34
2023-02-25T06:35:23.542Z,94589.72
2023-02-25T06:38:10.637Z,94606.56
2023-02-25T06:40:57.372Z,94611.44
2023-02-25T06:43:44.879Z,94619.31
2023-02-25T06:46:31.134Z,94606.78
2023-02-25T06:49:19.113Z,94608.84
2023-02-25T06:52:05.692Z,94621.34
2023-02-25T06:54:52.032Z,94610.38
2023-02-25T06:57:38.000Z,94607.81
2023-02-25T07:00:24.619Z,94615.72
2023-02-25T07:03:14.470Z,94598.22
2023-02-25T07:06:00.340Z,94601.19
2023-02-25T07:08:46.646Z,94579.78
2023-02-25T07:11:34.694Z,94596.53
2023-02-25T07:14:21.600Z,94582.56
2023-02-25T07:17:07.570Z,94589.16
2023-02-25T07:19:53.577Z,94588.50
2023-02-25T07:22:42.046Z,94591.94
2023-02-25T07:25:27.849Z,94586.38
2023-02-25T07:28:13.828Z,94577.63
2023-02-25T07:31:14.902Z,94571.00
2023-02-25T07:34:03.618Z,94566.66
2023-02-25T07:36:50.340Z,94558.00
2023-02-25T07:39:36.238Z,94546.84
2023-02-25T07:42:23.373Z,94550.94
2023-02-25T07:45:10.680Z,94553.41
2023-02-25T07:47:58.510Z,94567.41
2023-02-25T07:50:44.814Z,94550.53
2023-02-25T07:53:31.831Z,94540.28
2023-02-25T07:56:20.398Z,94543.81
2023-02-25T07:59:07.097Z,94530.63
2023-02-25T08:01:52.777Z,94524.91
2023-02-25T08:04:39.825Z,94541.38
2023-02-25T08:07:26.728Z,94524.59
2023-02-25T08:10:13.434Z,94519.72
2023-02-25T08:13:01.470Z,94531.56
2023-02-25T08:15:47.629Z,94536.88
2023-02-25T08:18:33.820Z,94533.25
2023-02-25T08:21:24.471Z,94525.63
2023-02-25T08:24:11.571Z,94532.56
2023-02-25T08:26:57.392Z,94522.97
2023-02-25T08:29:48.631Z,94533.91
2023-02-25T08:32:36.279Z,94541.13
2023-02-25T08:35:25.666Z,94542.91
2023-02-25T08:38:13.068Z,94540.41
2023-02-25T08:41:00.811Z,94530.03
2023-02-25T08:43:51.435Z,94530.22
2023-02-25T08:46:41.800Z,94523.88
2023-02-25T08:49:28.276Z,94543.09
2023-02-25T08:52:14.732Z,94529.53
2023-02-25T08:55:04.123Z,94519.22
2023-02-25T08:57:51.321Z,94513.19
2023-02-25T09:00:37.906Z,94519.28
2023-02-25T09:03:27.992Z,94515.59
2023-02-25T09:06:14.147Z,94524.81
2023-02-25T09:09:01.731Z,94525.78
2023-02-25T09:11:49.173Z,94534.22
2023-02-25T09:14:35.833Z,94527.88
2023-02-25T09:17:29.936Z,94531.91
2023-02-25T09:20:18.168Z,94542.56
2023-02-25T09:23:04.173Z,94545.56
2023-02-25T09:25:50.304Z,94538.31
2023-02-25T09:28:40.007Z,94551.19
2023-02-25T09:31:29.884Z,94572.19
2023-02-25T09:34:15.627Z,94544.63
2023-02-25T09:37:04.457Z,94537.50
2023-02-25T09:39:50.587Z,94535.13
2023-02-25T09:42:54.428Z,94532.69
2023-02-25T09:45:42.150Z,94532.44
2023-02-25T09:48:35.064Z,94542.84
2023-02-25T09:51:27.204Z,94542.06
2023-02-25T09:54:27.943Z,94522.44
2023-02-25T09:57:19.207Z,94524.97
2023-02-25T10:00:11.884Z,94523.41
2023-02-25T10:03:05.049Z,94505.28
2023-02-25T10:06:15.588Z,94528.31
2023-02-25T10:09:10.389Z,94512.88
2023-02-25T10:12:10.114Z,94518.41
2023-02-25T10:15:22.586Z,94500.63
2023-02-25T10:18:18.347Z,94502.38
2023-02-25T10:21:49.204Z,94512.78
2023-02-25T10:24:50.909Z,94510.22
2023-02-25T10:27:40.896Z,94507.94
2023-02-25T10:30:33.437Z,94489.22
2023-02-25T10:33:24.387Z,94480.53
2023-02-25T10:36:16.401Z,94487.94
2023-02-25T10:39:02.194Z,94501.97
2023-02-25T10:41:49.389Z,94466.66
2023-02-25T10:44:35.743Z,94477.88
2023-02-25T10:47:31.354Z,94484.81
2023-02-25T10:50:29.768Z,94490.97
2023-02-25T10:53:19.504Z,94485.66
2023-02-25T10:56:06.043Z,94465.59
2023-02-25T10:59:22.682Z,94452.09
2023-02-25T11:02:41.774Z,94442.25
2023-02-25T11:05:41.259Z,94457.00
2023-02-25T11:08:29.749Z,94427.75
2023-02-25T11:11:53.108Z,94430.25
2023-02-25T11:14:42.879Z,94430.38
2023-02-25T11:17:29.082Z,94434.38
2023-02-25T11:20:23.848Z,94415.81
2023-02-25T11:23:22.097Z,94408.88
2023-02-25T11:26:08.799Z,94430.41
2023-02-25T11:28:54.791Z,94435.06
2023-02-25T11:31:42.727Z,94423.47
2023-02-25T11:34:31.106Z,94402.03
2023-02-25T11:37:36.061Z,94394.59
2023-02-25T11:40:22.791Z,94391.69
2023-02-25T11:43:36.053Z,94388.69
2023-02-25T11:46:24.263Z,94397.66
2023-02-25T11:49:11.013Z,94391.09
2023-02-25T11:52:18.536Z,94376.22
2023-02-25T11:55:42.372Z,94396.31
2023-02-25T11:58:53.295Z,94380.22
2023-02-25T12:01:44.385Z,94380.53
2023-02-25T12:04:41.415Z,94402.94
2023-02-25T12:08:05.242Z,94398.09
2023-02-25T12:11:13.100Z,94372.84
2023-02-25T12:14:05.477Z,94377.19
2023-02-25T12:17:10.358Z,94379.91
2023-02-25T12:20:17.402Z,94377.09
2023-02-25T12:23:22.110Z,94370.78
2023-02-25T12:26:23.542Z,94360.50
2023-02-25T12:29:51.909Z,94370.41
2023-02-25T12:33:15.286Z,94371.72
2023-02-25T12:36:31.347Z,94370.09
2023-02-25T12:39:47.135Z,94361.13
2023-02-25T12:42:44.083Z,94398.31
2023-02-25T12:45:56.229Z,94379.00
2023-02-25T12:49:00.260Z,94369.13
2023-02-25T12:51:52.106Z,94374.00
2023-02-25T12:54:59.447Z,94375.13
2023-02-25T12:58:10.572Z,94373.00
2023-02-25T13:01:28.494Z,94367.88
2023-02-25T13:05:02.305Z,94366.06
2023-02-25T13:08:06.618Z,94361.97
2023-02-25T13:10:52.464Z,94362.88
2023-02-25T13:13:47.531Z,94371.44
2023-02-25T13:16:58.890Z,94361.44
2023-02-25T13:20:12.606Z,94352.91
2023-02-25T13:23:27.462Z,94352.13
2023-02-25T13:26:44.499Z,94340.53
2023-02-25T13:29:35.409Z,94322.66
2023-02-25T13:32:39.456Z,94336.53
2023-02-25T13:35:40.297Z,94330.25
2023-02-25T13:38:42.428Z,94334.94
2023-02-25T13:41:56.236Z,94322.50
2023-02-25T13:45:14.288Z,94311.13
2023-02-25T13:48:15.531Z,94314.56
2023-02-25T13:51:20.428Z,94324.91
2023-02-25T13:54:24.827Z,94320.34
2023-02-25T13:57:40.460Z,94329.13
2023-02-25T14:00:46.534Z,94327.00
2023-02-25T14:03:41.622Z,94336.00
2023-02-25T14:06:31.722Z,94345.69
2023-02-25T14:09:46.537Z,94344.03
2023-02-25T14:12:53.908Z,94351.00
2023-02-25T14:16:22.721Z,94343.53
2023-02-25T14:19:33.334Z,94355.44
2023-02-25T14:22:33.697Z,94365.78
2023-02-25T14:25:56.888Z,94350.81
2023-02-25T14:29:01.536Z,94355.94
2023-02-25T14:31:54.014Z,94344.78
2023-02-25T14:34:40.182Z,94348.41
2023-02-25T14:37:31.789Z,94346.63
2023-02-25T14:40:23.706Z,94375.25
2023-02-25T14:43:35.977Z,94357.53
2023-02-25T14:46:40.507Z,94356.84
2023-02-25T14:49:43.363Z,94353.41
2023-02-25T14:53:03.060Z,94332.94
2023-02-25T14:56:07.843Z,94345.97
2023-02-25T14:59:15.529Z,94349.69
2023-02-25T15:03:01.141Z,94360.25
2023-02-25T15:06:09.533Z,94379.56
2023-02-25T15:09:21.526Z,94390.53
2023-02-25T15:12:19.494Z,94350.81
2023-02-25T15:15:08.565Z,94344.06
2023-02-25T15:18:15.926Z,94364.06
2023-02-25T15:21:27.312Z,94349.16
2023-02-25T15:24:41.923Z,94347.44
2023-02-25T15:27:46.753Z,94345.69
2023-02-25T15:31:28.852Z,94334.63
2023-02-25T15:34:20.938Z,94339.22
2023-02-25T15:37:25.899Z,94374.72
2023-02-25T15:40:16.964Z,94370.03
2023-02-25T15:43:41.724Z,94354.34
2023-02-25T15:46:34.060Z,94343.41
2023-02-25T15:49:36.029Z,94340.88
2023-02-25T15:52:52.755Z,94330.81
2023-02-25T15:55:40.636Z,94324.59
2023-02-25T15:58:31.893Z,94329.97
2023-02-25T16:01:40.145Z,94316.66
2023-02-25T16:04:43.336Z,94324.34
2023-02-25T16:07:35.895Z,94333.63
2023-02-25T16:10:46.427Z,94345.88
2023-02-25T16:13:34.966Z,94338.19
2023-02-25T16:16:21.895Z,94324.78
2023-02-25T16:19:40.267Z,94336.00
2023-02-25T16:22:28.341Z,94354.59
2023-02-25T16:25:16.365Z,94357.22
2023-02-25T16:28:15.636Z,94362.66
2023-02-25T16:31:12.660Z,94361.31
2023-02-25T16:34:06.644Z,94352.75
2023-02-25T16:37:14.638Z,94368.75
2023-02-25T16:40:01.246Z,94352.50
2023-02-25T16:42:47.150Z,94350.81
2023-02-25T16:45:45.333Z,94356.59
2023-02-25T16:48:34.541Z,94362.44
2023-02-25T16:51:36.376Z,94374.00
2023-02-25T16:54:31.880Z,94348.28
2023-02-25T16:57:22.264Z,94365.41
2023-02-25T17:00:16.601Z,94362.25
2023-02-25T17:03:05.543Z,94363.84
2023-02-25T17:06:17.783Z,94372.31
2023-02-25T17:09:04.183Z,94368.81
2023-02-25T17:11:55.140Z,94357.53
2023-02-25T17:14:50.127Z,94362.88
2023-02-25T17:17:38.810Z,94355.09
2023-02-25T17:21:04.310Z,94367.50
2023-02-25T17:23:51.362Z,94361.97
2023-02-25T17:26:44.221Z,94368.19
2023-02-25T17:29:36.531Z,94370.44
2023-02-25T17:32:25.187Z,94368.88
2023-02-25T17:35:12.353Z,94375.00
2023-02-25T17:37:59.669Z,94377.25
2023-02-25T17:40:46.125Z,94366.66
2023-02-25T17:43:33.134Z,94370.94
2023-02-25T17:46:36.516Z,94372.34
2023-02-25T17:49:30.728Z,94370.75
2023-02-25T17:52:20.858Z,94360.72
2023-02-25T17:55:36.125Z,94360.50
2023-02-25T17:58:23.767Z,94346.63
2023-02-25T18:01:19.748Z,94340.34
2023-02-25T18:04:06.254Z,94348.88
2023-02-25T18:06:56.718Z,94337.88
2023-02-25T18:09:42.939Z,94337.19
2023-02-25T18:12:31.804Z,94341.25
2023-02-25T18:15:22.085Z,94338.66
2023-02-25T18:18:21.622Z,94354.78
2023-02-25T18:21:10.152Z,94333.81
2023-02-25T18:23:56.736Z,94336.97
2023-02-25T18:27:30.664Z,94345.31
2023-02-25T18:30:21.715Z,94330.31
2023-02-25T18:33:11.686Z,94321.28
2023-02-25T18:35:58.420Z,94324.91
2023-02-25T18:38:47.486Z,94326.38
2023-02-25T18:41:33.748Z,94315.75
2023-02-25T18:44:30.217Z,94320.72
2023-02-25T18:47:16.928Z,94334.97
2023-02-25T18:50:06.492Z,94325.72
2023-02-25T18:52:52.682Z,94322.56
2023-02-25T18:55:39.792Z,94312.41
2023-02-25T18:58:25.919Z,94316.72
2023-02-25T19:01:27.277Z,94333.63
2023-02-25T19:04:17.125Z,94337.47
2023-02-25T19:07:05.649Z,94345.59
2023-02-25T19:09:51.835Z,94330.06
2023-02-25T19:12:50.867Z,94342.44
2023-02-25T19:15:36.940Z,94347.88
2023-02-25T19:18:26.120Z,94350.56
2023-02-25T19:21:14.445Z,94349.00
2023-02-25T19:24:06.431Z,94349.44
2023-02-25T19:26:52.602Z,94342.78
2023-02-25T19:29:38.562Z,94346.75
2023-02-25T19:32:26.070Z,94347.75
2023-02-25T19:35:12.529Z,94349.44
2023-02-25T19:37:58.574Z,94353.97
2023-02-25T19:40:45.570Z,94339.53
2023-02-25T19:43:35.953Z,94343.34
2023-02-25T19:46:22.369Z,94355.53
2023-02-25T19:49:14.315Z,94350.13
2023-02-25T19:52:00.288Z,94338.41
2023-02-25T19:54:59.564Z,94339.97
2023-02-25T19:57:46.874Z,94340.41
2023-02-25T20:00:32.892Z,94342.00
2023-02-25T20:03:19.973Z,94327.56
2023-02-25T20:06:13.333Z,94337.72
2023-02-25T20:09:04.736Z,94330.72
2023-02-25T20:11:53.140Z,94322.16
2023-02-25T20:14:39.410Z,94314.50
2023-02-25T20:17:26.136Z,94324.28
2023-02-25T20:20:13.340Z,94323.50
2023-02-25T20:22:59.327Z,94315.38
2023-02-25T20:25:45.373Z,94316.97
2023-02-25T20:28:33.869Z,94320.00
2023-02-25T20:31:20.861Z,94311.78
2023-02-25T20:34:12.986Z,94312.22
2023-02-25T20:37:10.989Z,94311.31
2023-02-25T20:39:59.089Z,94311.31
2023-02-25T20:42:46.190Z,94305.91
2023-02-25T20:45:32.592Z,94300.50
2023-02-25T20:48:31.494Z,94307.50
2023-02-25T20:51:17.588Z,94291.16
2023-02-25T20:54:05.910Z,94285.72
2023-02-25T20:56:52.211Z,94300.50
2023-02-25T20:59:44.725Z,94295.44
2023-02-25T21:02:30.625Z,94297.00
2023-02-25T21:05:22.292Z,94296.66
2023-02-25T21:08:11.507Z,94290.13
2023-02-25T21:10:58.827Z,94293.72
2023-02-25T21:13:47.780Z,94296.84
2023-02-25T21:16:33.842Z,94283.78
2023-02-25T21:19:23.365Z,94280.72
2023-02-25T21:22:09.472Z,94279.94
2023-02-25T21:24:55.544Z,94276.78
2023-02-25T21:27:41.635Z,94276.78
2023-02-25T21:30:27.584Z,94278.38
2023-02-25T21:33:18.637Z,94278.81
2023-02-25T21:36:05.449Z,94278.81
2023-02-25T21:38:55.664Z,94276.56
2023-02-25T21:41:44.386Z,94270.00
2023-02-25T21:44:30.751Z,94272.25
2023-02-25T21:47:16.455Z,94251.28
2023-02-25T21:50:02.365Z,94258.38
2023-02-25T21:52:49.702Z,94255.34
2023-02-25T21:55:35.516Z,94244.41
2023-02-25T21:58:21.422Z,94248.25
2023-02-25T22:01:24.608Z,94241.34
2023-02-25T22:04:11.297Z,94230.53
2023-02-25T22:06:58.421Z,94236.47
2023-02-25T22:09:44.014Z,94229.75
2023-02-25T22:12:30.917Z,94242.66
2023-02-25T22:15:16.940Z,94236.41
2023-02-25T22:18:06.292Z,94242.66
2023-02-25T22:20:52.163Z,94244.69
2023-02-25T22:23:39.198Z,94244.00
2023-02-25T22:26:29.157Z,94245.28
2023-02-25T22:29:38.827Z,94243.31
2023-02-25T22:32:24.973Z,94237.31
2023-02-25T22:35:14.183Z,94236.53
2023-02-25T22:37:59.951Z,94241.69
2023-02-25T22:40:45.688Z,94243.25
2023-02-25T22:43:32.942Z,94242.56
2023-02-25T22:46:20.473Z,94232.88
2023-02-25T22:49:07.670Z,94230.50
2023-02-25T22:51:56.889Z,94229.72
2023-02-25T22:54:43.172Z,94232.88
2023-02-25T22:57:30.060Z,94218.88
2023-02-25T23:00:19.521Z,94241.44
2023-02-25T23:03:07.638Z,94235.25
2023-02-25T23:05:55.062Z,94222.03
2023-02-25T23:08:40.939Z,94228.25
2023-02-25T23:11:32.033Z,94240.56
2023-02-25T23:14:28.141Z,94246.69
2023-02-25T23:17:13.970Z,94226.94
2023-02-25T23:20:00.458Z,94223.50
2023-02-25T23:22:53.944Z,94228.59
2023-02-25T23:25:41.503Z,94237.59
2023-02-25T23:28:27.600Z,94226.78
2023-02-25T23:31:21.269Z,94257.88
2023-02-25T23:34:25.585Z,94228.50
2023-02-25T23:37:11.288Z,94249.06
2023-02-25T23:39:56.955Z,94231.66
2023-02-25T23:42:58.199Z,94256.50
2023-02-25T23:45:46.857Z,94230.34
2023-02-25T23:48:33.413Z,94244.78
2023-02-25T23:51:24.860Z,94253.72
2023-02-25T23:54:13.662Z,94240.59
2023-02-25T23:56:59.386Z,94253.78
2023-02-25T23:59:47.684Z,94239.88
